createdAt,value
2017-11-14T00:02:07.753Z,65.41
2017-11-14T00:04:35.293Z,66.20
2017-11-14T00:07:03.264Z,66.14
2017-11-14T00:09:30.823Z,66.38
2017-11-14T00:11:58.378Z,65.71
2017-11-14T00:14:25.954Z,65.57
2017-11-14T00:16:53.467Z,65.01
2017-11-14T00:19:20.987Z,65.30
2017-11-14T00:21:48.559Z,65.15
2017-11-14T00:24:16.175Z,64.93
2017-11-14T00:26:43.732Z,64.69
2017-11-14T00:29:11.475Z,65.04
2017-11-14T00:31:38.997Z,65.18
2017-11-14T00:34:06.519Z,65.47
2017-11-14T00:36:34.108Z,65.88
2017-11-14T00:39:01.631Z,65.69
2017-11-14T00:41:29.192Z,66.12
2017-11-14T00:43:56.953Z,66.67
2017-11-14T00:46:24.471Z,67.11
2017-11-14T00:48:51.987Z,67.19
2017-11-14T00:51:19.735Z,66.59
2017-11-14T00:53:47.294Z,66.65
2017-11-14T00:56:14.852Z,66.30
2017-11-14T01:01:09.457Z,65.89
2017-11-14T01:03:37.032Z,66.12
2017-11-14T01:06:04.611Z,66.57
2017-11-14T01:08:32.130Z,66.82
2017-11-14T01:10:59.649Z,67.01
2017-11-14T01:13:27.355Z,66.94
2017-11-14T01:15:54.871Z,66.63
2017-11-14T01:18:22.409Z,66.29
2017-11-14T01:20:49.994Z,67.48
2017-11-14T01:23:17.515Z,67.84
2017-11-14T01:25:45.027Z,67.54
2017-11-14T01:28:12.709Z,67.91
2017-11-14T01:30:40.269Z,67.95
2017-11-14T01:33:07.829Z,68.66
2017-11-14T01:35:35.572Z,68.20
2017-11-14T01:38:03.092Z,67.42
2017-11-14T01:40:30.610Z,68.00
2017-11-14T01:42:58.183Z,67.18
2017-11-14T01:45:25.728Z,67.08
2017-11-14T01:47:53.285Z,67.56
2017-11-14T01:50:20.844Z,67.79
2017-11-14T01:55:31.615Z,67.38
2017-11-14T01:57:59.139Z,66.95
2017-11-14T02:00:38.729Z,67.42
2017-11-14T02:03:06.246Z,67.89
2017-11-14T02:05:33.768Z,68.09
2017-11-14T02:08:01.713Z,67.51
2017-11-14T02:10:29.224Z,67.03
2017-11-14T02:12:56.748Z,67.18
2017-11-14T02:15:24.493Z,67.16
2017-11-14T02:17:52.054Z,66.46
2017-11-14T02:20:19.656Z,66.22
2017-11-14T02:22:47.214Z,66.41
2017-11-14T02:25:14.731Z,66.00
2017-11-14T02:30:09.097Z,66.02
2017-11-14T02:32:36.611Z,65.80
2017-11-14T02:35:04.131Z,65.75
2017-11-14T02:37:31.811Z,65.88
2017-11-14T02:39:59.370Z,65.73
2017-11-14T02:42:26.929Z,65.28
2017-11-14T02:44:54.540Z,65.25
2017-11-14T02:47:22.078Z,65.17
2017-11-14T02:49:49.595Z,65.21
2017-11-14T02:52:17.160Z,65.13
2017-11-14T02:54:44.680Z,64.96
2017-11-14T02:57:12.196Z,65.23
2017-11-14T02:59:39.841Z,65.17
2017-11-14T03:02:07.357Z,64.95
2017-11-14T03:04:34.905Z,64.98
2017-11-14T03:07:02.619Z,65.37
2017-11-14T03:09:30.135Z,65.28
2017-11-14T03:11:57.652Z,65.40
2017-11-14T03:14:25.216Z,65.84
2017-11-14T03:16:52.958Z,65.82
2017-11-14T03:19:20.520Z,65.36
2017-11-14T03:21:48.261Z,66.07
2017-11-14T03:24:15.810Z,65.95
2017-11-14T03:26:43.342Z,65.29
2017-11-14T03:29:11.067Z,65.41
2017-11-14T03:31:38.630Z,65.38
2017-11-14T03:34:06.186Z,65.39
2017-11-14T03:36:33.942Z,65.36
2017-11-14T03:39:01.502Z,65.60
2017-11-14T03:41:29.470Z,65.26
2017-11-14T03:43:57.281Z,64.87
2017-11-14T03:46:24.820Z,64.87
2017-11-14T03:48:52.353Z,65.05
2017-11-14T03:51:20.117Z,64.73
2017-11-14T03:53:47.635Z,65.07
2017-11-14T03:56:15.155Z,65.43
2017-11-14T03:58:42.896Z,65.18
2017-11-14T04:01:10.456Z,66.22
2017-11-14T04:03:37.975Z,65.31
2017-11-14T04:06:05.911Z,65.25
2017-11-14T04:08:33.441Z,65.06
2017-11-14T04:11:00.999Z,65.81
2017-11-14T04:13:28.756Z,66.32
2017-11-14T04:15:56.276Z,65.50
2017-11-14T04:18:23.796Z,65.46
2017-11-14T04:20:51.488Z,65.70
2017-11-14T04:23:19.009Z,66.00
2017-11-14T04:25:46.565Z,65.90
2017-11-14T04:28:14.300Z,66.39
2017-11-14T04:30:41.831Z,66.64
2017-11-14T04:33:09.353Z,66.31
2017-11-14T04:35:37.101Z,65.87
2017-11-14T04:38:04.606Z,65.91
2017-11-14T04:40:32.151Z,65.25
2017-11-14T04:42:59.985Z,65.09
2017-11-14T04:45:27.543Z,65.17
2017-11-14T04:47:55.103Z,65.38
2017-11-14T04:50:22.840Z,65.05
2017-11-14T04:52:50.360Z,65.33
2017-11-14T04:55:18.393Z,65.23
2017-11-14T04:57:46.260Z,64.98
2017-11-14T05:00:13.775Z,65.26
2017-11-14T05:02:41.291Z,65.55
2017-11-14T05:05:08.844Z,65.16
2017-11-14T05:07:36.362Z,65.07
2017-11-14T05:10:03.873Z,65.31
2017-11-14T05:12:31.463Z,64.94
2017-11-14T05:14:58.983Z,64.93
2017-11-14T05:17:26.501Z,65.38
2017-11-14T05:19:54.403Z,65.45
2017-11-14T05:22:21.960Z,65.23
2017-11-14T05:24:49.542Z,65.13
2017-11-14T05:27:17.276Z,66.23
2017-11-14T05:29:44.789Z,65.25
2017-11-14T05:32:12.320Z,65.22
2017-11-14T05:34:40.056Z,64.63
2017-11-14T05:37:07.574Z,64.67
2017-11-14T05:39:35.090Z,64.73
2017-11-14T05:42:02.837Z,64.55
2017-11-14T05:44:30.351Z,65.16
2017-11-14T05:46:57.866Z,64.80
2017-11-14T05:49:25.717Z,64.56
2017-11-14T05:51:53.279Z,64.71
2017-11-14T05:54:20.792Z,65.22
2017-11-14T05:56:48.599Z,64.80
2017-11-14T05:59:16.158Z,64.63
2017-11-14T06:01:43.717Z,64.99
2017-11-14T06:04:11.294Z,64.40
2017-11-14T06:06:38.852Z,64.41
2017-11-14T06:09:06.370Z,64.24
2017-11-14T06:11:34.272Z,64.32
2017-11-14T06:14:01.789Z,64.71
2017-11-14T06:16:29.312Z,64.52
2017-11-14T06:18:56.872Z,64.41
2017-11-14T06:21:24.387Z,64.23
2017-11-14T06:23:51.895Z,64.59
2017-11-14T06:26:19.513Z,64.52
2017-11-14T06:28:47.028Z,64.88
2017-11-14T06:31:14.836Z,64.17
2017-11-14T06:33:42.395Z,63.72
2017-11-14T06:36:09.916Z,63.94
2017-11-14T06:38:37.444Z,64.16
2017-11-14T06:41:05.255Z,63.99
2017-11-14T06:43:32.836Z,64.03
2017-11-14T06:46:00.355Z,64.12
2017-11-14T06:48:27.926Z,64.64
2017-11-14T06:50:55.435Z,63.72
2017-11-14T06:53:22.951Z,63.70
2017-11-14T06:55:50.522Z,63.70
2017-11-14T06:58:18.047Z,63.48
2017-11-14T07:00:45.574Z,63.59
2017-11-14T07:03:13.308Z,63.47
2017-11-14T07:05:40.819Z,63.07
2017-11-14T07:08:08.335Z,63.26
2017-11-14T07:10:35.883Z,63.50
2017-11-14T07:13:04.159Z,63.11
2017-11-14T07:15:31.720Z,63.79
2017-11-14T07:17:59.456Z,63.44
2017-11-14T07:20:26.976Z,62.78
2017-11-14T07:22:54.488Z,63.50
2017-11-14T07:25:23.184Z,64.01
2017-11-14T07:27:50.746Z,64.91
2017-11-14T07:30:18.302Z,63.76
2017-11-14T07:32:45.875Z,63.82
2017-11-14T07:35:13.421Z,62.82
2017-11-14T07:37:40.943Z,62.46
2017-11-14T07:40:08.844Z,62.48
2017-11-14T07:42:36.356Z,62.41
2017-11-14T07:45:03.872Z,62.94
2017-11-14T07:47:31.503Z,62.55
2017-11-14T07:49:59.023Z,62.99
2017-11-14T07:52:26.548Z,63.46
2017-11-14T07:54:54.104Z,63.33
2017-11-14T07:57:21.657Z,62.70
2017-11-14T07:59:49.258Z,62.59
2017-11-14T08:02:16.809Z,61.75
2017-11-14T08:04:44.332Z,61.37
2017-11-14T08:07:11.892Z,60.87
2017-11-14T08:09:40.372Z,59.57
2017-11-14T08:12:07.931Z,59.28
2017-11-14T08:14:35.497Z,58.55
2017-11-14T08:17:03.967Z,57.67
2017-11-14T08:19:31.576Z,57.21
2017-11-14T08:21:59.096Z,57.25
2017-11-14T08:24:26.852Z,56.99
2017-11-14T08:26:54.419Z,58.32
2017-11-14T08:29:21.948Z,58.86
2017-11-14T08:31:49.530Z,60.46
2017-11-14T08:34:17.296Z,61.10
2017-11-14T08:36:44.853Z,62.08
2017-11-14T08:39:13.138Z,61.90
2017-11-14T08:41:40.689Z,60.73
2017-11-14T08:44:10.911Z,60.71
2017-11-14T08:46:38.472Z,59.09
2017-11-14T08:49:06.027Z,59.12
2017-11-14T08:51:33.535Z,59.41
2017-11-14T08:54:01.540Z,58.69
2017-11-14T08:56:29.051Z,57.90
2017-11-14T08:58:56.572Z,57.43
2017-11-14T09:01:24.336Z,57.86
2017-11-14T09:03:51.896Z,56.09
2017-11-14T09:06:19.471Z,54.38
2017-11-14T09:08:47.064Z,53.81
2017-11-14T09:11:14.600Z,54.07
2017-11-14T09:13:42.868Z,54.73
2017-11-14T09:16:10.536Z,55.09
2017-11-14T09:18:38.051Z,55.07
2017-11-14T09:21:05.664Z,55.61
2017-11-14T09:23:33.336Z,56.14
2017-11-14T09:26:00.848Z,55.46
2017-11-14T09:28:28.406Z,55.53
2017-11-14T09:30:56.153Z,56.11
2017-11-14T09:33:23.667Z,56.88
2017-11-14T09:35:51.192Z,56.75
2017-11-14T09:38:18.819Z,55.90
2017-11-14T09:40:46.347Z,57.04
2017-11-14T09:43:13.864Z,56.08
2017-11-14T09:45:41.713Z,54.08
2017-11-14T09:48:09.287Z,52.72
2017-11-14T09:50:36.846Z,51.25
2017-11-14T09:53:04.580Z,49.84
2017-11-14T09:55:32.104Z,47.66
2017-11-14T09:57:59.631Z,46.03
2017-11-14T10:00:27.390Z,46.43
2017-11-14T10:02:54.951Z,47.24
2017-11-14T10:05:22.594Z,47.28
2017-11-14T10:07:50.354Z,46.19
2017-11-14T10:10:17.868Z,46.45
2017-11-14T10:12:45.404Z,46.25
2017-11-14T10:15:12.959Z,46.22
2017-11-14T10:17:40.488Z,46.03
2017-11-14T10:20:08.015Z,46.22
2017-11-14T10:22:35.630Z,48.69
2017-11-14T10:25:03.156Z,48.26
2017-11-14T10:27:30.718Z,49.61
2017-11-14T10:29:58.406Z,51.70
2017-11-14T10:32:25.935Z,51.46
2017-11-14T10:34:53.456Z,51.30
2017-11-14T10:37:21.163Z,50.73
2017-11-14T10:39:49.376Z,49.91
2017-11-14T10:42:16.900Z,47.57
2017-11-14T10:44:44.662Z,41.30
2017-11-14T10:47:12.176Z,37.35
2017-11-14T10:49:39.707Z,37.52
2017-11-14T10:52:07.411Z,37.56
2017-11-14T10:54:34.927Z,32.15
2017-11-14T10:57:02.478Z,27.72
2017-11-14T10:59:30.195Z,32.60
2017-11-14T11:01:57.710Z,38.16
2017-11-14T11:04:25.296Z,40.53
2017-11-14T11:06:52.847Z,41.69
2017-11-14T11:09:20.375Z,42.32
2017-11-14T11:11:47.939Z,39.64
2017-11-14T11:14:15.487Z,36.22
2017-11-14T11:16:43.004Z,31.33
2017-11-14T11:19:10.524Z,26.34
2017-11-14T11:21:38.455Z,22.90
2017-11-14T11:24:06.039Z,17.94
2017-11-14T11:26:33.688Z,18.37
2017-11-14T11:29:01.462Z,16.70
2017-11-14T11:31:29.021Z,16.72
2017-11-14T11:33:56.582Z,19.45
2017-11-14T11:36:24.143Z,20.61
2017-11-14T11:38:51.699Z,19.98
2017-11-14T11:41:19.258Z,21.74
2017-11-14T11:43:47.123Z,24.37
2017-11-14T11:46:14.651Z,30.62
2017-11-14T11:48:42.172Z,35.25
2017-11-14T11:51:09.905Z,35.90
2017-11-14T11:53:37.464Z,36.02
2017-11-14T11:56:05.035Z,38.25
2017-11-14T11:58:32.784Z,40.08
2017-11-14T12:01:00.345Z,41.34
2017-11-14T12:03:27.918Z,35.56
2017-11-14T12:05:55.567Z,36.52
2017-11-14T12:08:23.127Z,36.78
2017-11-14T12:10:50.683Z,37.37
2017-11-14T12:13:18.445Z,37.25
2017-11-14T12:15:46.006Z,37.75
2017-11-14T12:18:13.523Z,38.62
2017-11-14T12:20:41.461Z,39.52
2017-11-14T12:23:08.980Z,41.79
2017-11-14T12:25:36.549Z,43.60
2017-11-14T12:28:04.320Z,43.09
2017-11-14T12:30:31.863Z,41.75
2017-11-14T12:32:59.432Z,41.62
2017-11-14T12:35:27.296Z,41.67
2017-11-14T12:37:54.857Z,41.99
2017-11-14T12:40:22.375Z,43.65
2017-11-14T12:42:50.179Z,43.60
2017-11-14T12:45:17.739Z,44.97
2017-11-14T12:47:45.308Z,45.38
2017-11-14T12:50:12.864Z,44.59
2017-11-14T12:52:40.415Z,43.84
2017-11-14T12:55:07.975Z,42.26
2017-11-14T12:57:35.738Z,42.46
2017-11-14T13:00:03.297Z,41.83
2017-11-14T13:02:30.855Z,43.19
2017-11-14T13:04:58.620Z,44.21
2017-11-14T13:07:26.140Z,43.99
2017-11-14T13:09:53.658Z,42.69
2017-11-14T13:12:22.014Z,41.88
2017-11-14T13:14:49.575Z,42.24
2017-11-14T13:17:17.105Z,44.62
2017-11-14T13:19:44.921Z,43.79
2017-11-14T13:22:12.455Z,43.37
2017-11-14T13:24:40.013Z,44.55
2017-11-14T13:27:07.784Z,43.93
2017-11-14T13:29:35.338Z,42.70
2017-11-14T13:32:03.003Z,42.56
2017-11-14T13:34:31.323Z,43.27
2017-11-14T13:36:58.849Z,43.38
2017-11-14T13:39:26.396Z,44.70
2017-11-14T13:41:54.450Z,45.16
2017-11-14T13:44:21.974Z,44.37
2017-11-14T13:46:49.499Z,46.08
2017-11-14T13:49:17.061Z,46.66
2017-11-14T13:51:44.578Z,47.22
2017-11-14T13:54:12.114Z,47.70
2017-11-14T13:56:39.716Z,47.94
2017-11-14T13:59:07.254Z,49.18
2017-11-14T14:01:34.785Z,49.32
2017-11-14T14:04:02.473Z,48.82
2017-11-14T14:06:30.362Z,49.40
2017-11-14T14:08:57.884Z,50.30
2017-11-14T14:11:25.479Z,50.01
2017-11-14T14:13:53.040Z,49.92
2017-11-14T14:16:21.427Z,48.84
2017-11-14T14:18:48.981Z,48.79
2017-11-14T14:21:16.553Z,49.23
2017-11-14T14:23:44.076Z,49.06
2017-11-14T14:26:11.857Z,49.10
2017-11-14T14:28:39.723Z,50.07
2017-11-14T14:31:07.283Z,49.31
2017-11-14T14:33:34.844Z,50.02
2017-11-14T14:36:02.503Z,49.90
2017-11-14T14:41:21.277Z,49.96
2017-11-14T14:43:48.834Z,50.14
2017-11-14T14:46:16.394Z,49.91
2017-11-14T14:48:43.953Z,50.69
2017-11-14T14:51:11.527Z,50.32
2017-11-14T14:53:39.086Z,50.52
2017-11-14T14:56:06.942Z,51.17
2017-11-14T14:58:34.497Z,51.10
2017-11-14T15:01:02.064Z,50.80
2017-11-14T15:03:29.717Z,50.85
2017-11-14T15:05:57.232Z,51.35
2017-11-14T15:08:24.755Z,51.51
2017-11-14T15:10:52.503Z,51.73
2017-11-14T15:13:20.058Z,51.48
2017-11-14T15:15:47.614Z,51.84
2017-11-14T15:18:15.583Z,51.91
2017-11-14T15:20:43.143Z,52.57
2017-11-14T15:23:10.671Z,52.81
2017-11-14T15:25:39.132Z,52.56
2017-11-14T15:28:06.707Z,52.71
2017-11-14T15:30:34.316Z,53.18
2017-11-14T15:33:02.268Z,53.46
2017-11-14T15:35:29.807Z,53.88
2017-11-14T15:37:57.591Z,53.94
2017-11-14T15:40:25.268Z,54.20
2017-11-14T15:42:52.811Z,54.66
2017-11-14T15:45:20.375Z,54.76
2017-11-14T15:47:48.311Z,55.08
2017-11-14T15:50:15.839Z,55.63
2017-11-14T15:52:43.359Z,56.01
2017-11-14T15:55:12.042Z,56.06
2017-11-14T15:57:39.714Z,56.35
2017-11-14T16:00:07.307Z,56.51
2017-11-14T16:02:34.957Z,56.90
2017-11-14T16:05:02.506Z,56.90
2017-11-14T16:07:30.236Z,57.51
2017-11-14T16:09:58.117Z,58.27
2017-11-14T16:12:25.654Z,58.72
2017-11-14T16:14:53.230Z,58.34
2017-11-14T16:17:20.795Z,58.80
2017-11-14T16:19:48.556Z,58.60
2017-11-14T16:22:16.319Z,58.94
2017-11-14T16:24:44.081Z,58.57
2017-11-14T16:27:11.663Z,58.77
2017-11-14T16:29:39.212Z,58.49
2017-11-14T16:32:07.820Z,58.86
2017-11-14T16:34:35.655Z,59.64
2017-11-14T16:37:03.436Z,58.80
2017-11-14T16:39:31.586Z,59.50
2017-11-14T16:41:59.370Z,59.31
2017-11-14T16:44:27.108Z,59.73
2017-11-14T16:46:54.998Z,59.56
2017-11-14T16:49:22.762Z,59.48
2017-11-14T16:51:50.507Z,60.09
2017-11-14T16:54:18.993Z,60.30
2017-11-14T16:56:46.739Z,60.32
2017-11-14T16:59:14.260Z,60.61
2017-11-14T17:01:42.074Z,60.88
2017-11-14T17:04:09.692Z,60.87
2017-11-14T17:06:37.470Z,60.67
2017-11-14T17:09:05.674Z,60.97
2017-11-14T17:11:33.436Z,60.94
2017-11-14T17:14:01.303Z,61.40
2017-11-14T17:16:29.272Z,60.88
2017-11-14T17:18:57.049Z,61.06
2017-11-14T17:21:24.700Z,62.18
2017-11-14T17:23:52.871Z,62.96
2017-11-14T17:26:21.604Z,62.89
2017-11-14T17:28:49.338Z,61.96
2017-11-14T17:31:17.315Z,61.59
2017-11-14T17:33:45.333Z,61.88
2017-11-14T17:36:13.228Z,62.39
2017-11-14T17:38:53.297Z,62.61
2017-11-14T17:41:21.963Z,62.71
2017-11-14T17:43:49.831Z,62.26
2017-11-14T17:46:17.584Z,62.37
2017-11-14T17:48:45.502Z,62.74
2017-11-14T17:51:13.124Z,62.65
2017-11-14T17:53:40.988Z,62.51
2017-11-14T17:56:10.807Z,62.33
2017-11-14T17:58:39.076Z,62.42
2017-11-14T18:01:07.559Z,62.42
2017-11-14T18:03:35.543Z,62.85
2017-11-14T18:06:03.369Z,64.18
2017-11-14T18:08:31.176Z,63.85
2017-11-14T18:10:59.022Z,63.83
2017-11-14T18:13:26.972Z,64.02
2017-11-14T18:15:55.179Z,64.32
2017-11-14T18:18:23.440Z,64.82
2017-11-14T18:20:51.305Z,64.95
2017-11-14T18:23:19.377Z,64.79
2017-11-14T18:25:47.154Z,64.78
2017-11-14T18:28:14.802Z,65.39
2017-11-14T18:30:42.772Z,65.59
2017-11-14T18:33:10.638Z,64.70
2017-11-14T18:35:38.590Z,65.10
2017-11-14T18:38:06.574Z,64.60
2017-11-14T18:40:35.327Z,66.11
2017-11-14T18:43:03.795Z,65.32
2017-11-14T18:45:32.868Z,64.68
2017-11-14T18:48:00.916Z,64.43
2017-11-14T18:50:30.757Z,65.45
2017-11-14T18:52:58.690Z,64.98
2017-11-14T18:55:26.256Z,64.86
2017-11-14T18:57:53.811Z,64.54
2017-11-14T19:00:21.680Z,64.58
2017-11-14T19:02:49.281Z,65.85
2017-11-14T19:05:17.216Z,65.51
2017-11-14T19:07:45.442Z,65.29
2017-11-14T19:10:13.137Z,65.81
2017-11-14T19:12:40.797Z,64.98
2017-11-14T19:15:08.769Z,65.32
2017-11-14T19:17:36.530Z,64.39
2017-11-14T19:20:04.402Z,65.52
2017-11-14T19:22:32.358Z,65.59
2017-11-14T19:25:00.049Z,66.36
2017-11-14T19:27:27.840Z,65.98
2017-11-14T19:29:56.038Z,65.55
2017-11-14T19:32:23.830Z,65.89
2017-11-14T19:34:51.623Z,66.59
2017-11-14T19:37:19.777Z,66.49
2017-11-14T19:39:47.635Z,66.09
2017-11-14T19:42:15.568Z,66.33
2017-11-14T19:44:43.368Z,65.44
2017-11-14T19:47:11.069Z,66.22
2017-11-14T19:49:40.286Z,65.63
2017-11-14T19:52:08.309Z,66.22
2017-11-14T19:54:36.051Z,66.72
2017-11-14T19:57:03.735Z,66.67
2017-11-14T19:59:31.897Z,66.02
2017-11-14T20:01:59.763Z,66.38
2017-11-14T20:06:55.700Z,66.51
2017-11-14T20:09:23.793Z,67.78
2017-11-14T20:11:51.417Z,67.36
2017-11-14T20:14:20.078Z,66.35
2017-11-14T20:16:47.964Z,66.71
2017-11-14T20:19:15.977Z,68.17
2017-11-14T20:21:45.675Z,68.70
2017-11-14T20:24:13.442Z,67.79
2017-11-14T20:26:41.514Z,67.72
2017-11-14T20:29:10.207Z,69.16
2017-11-14T20:31:38.168Z,69.64
2017-11-14T20:34:07.200Z,69.77
2017-11-14T20:36:35.300Z,68.68
2017-11-14T20:39:03.287Z,68.29
2017-11-14T20:41:30.950Z,67.73
2017-11-14T20:43:58.939Z,67.67
2017-11-14T20:46:27.741Z,68.26
2017-11-14T20:48:55.693Z,69.04
2017-11-14T20:51:23.848Z,69.01
2017-11-14T20:53:51.715Z,69.08
2017-11-14T20:56:19.459Z,68.81
2017-11-14T20:58:47.344Z,69.49
2017-11-14T21:01:15.213Z,68.75
2017-11-14T21:03:42.872Z,68.45
2017-11-14T21:06:11.780Z,68.68
2017-11-14T21:08:39.643Z,68.49
2017-11-14T21:11:07.888Z,68.87
2017-11-14T21:13:36.898Z,68.66
2017-11-14T21:16:04.660Z,69.30
2017-11-14T21:18:32.527Z,68.65
2017-11-14T21:21:00.701Z,68.62
2017-11-14T21:23:28.672Z,67.86
2017-11-14T21:25:56.555Z,67.87
2017-11-14T21:28:24.709Z,68.16
2017-11-14T21:30:52.298Z,68.61
2017-11-14T21:33:19.864Z,67.85
2017-11-14T21:35:47.615Z,68.66
2017-11-14T21:38:15.155Z,69.41
2017-11-14T21:40:42.687Z,69.56
2017-11-14T21:43:10.269Z,67.94
2017-11-14T21:45:38.442Z,68.16
2017-11-14T21:48:06.002Z,69.19
2017-11-14T21:50:34.072Z,68.29
2017-11-14T21:53:01.667Z,68.85
2017-11-14T21:55:29.219Z,69.20
2017-11-14T21:57:58.022Z,68.52
2017-11-14T22:00:25.641Z,69.52
2017-11-14T22:02:53.199Z,70.03
2017-11-14T22:05:20.947Z,68.86
2017-11-14T22:07:48.457Z,69.01
2017-11-14T22:10:15.978Z,68.83
2017-11-14T22:12:43.744Z,69.17
2017-11-14T22:15:13.438Z,69.24
2017-11-14T22:17:41.127Z,69.74
2017-11-14T22:20:08.878Z,69.68
2017-11-14T22:22:36.437Z,68.74
2017-11-14T22:25:03.952Z,68.48
2017-11-14T22:27:31.874Z,68.17
2017-11-14T22:29:59.408Z,68.08
2017-11-14T22:32:26.923Z,68.99
2017-11-14T22:34:54.499Z,68.56
2017-11-14T22:37:22.010Z,68.51
2017-11-14T22:39:49.559Z,67.52
2017-11-14T22:42:17.134Z,66.54
2017-11-14T22:44:44.674Z,66.62
2017-11-14T22:47:12.233Z,66.08
2017-11-14T22:49:39.998Z,66.82
2017-11-14T22:52:07.555Z,68.10
2017-11-14T22:54:35.073Z,67.76
2017-11-14T22:57:02.645Z,66.52
2017-11-14T22:59:30.159Z,66.80
2017-11-14T23:01:58.611Z,66.56
2017-11-14T23:04:26.195Z,67.44
2017-11-14T23:06:53.754Z,67.80
2017-11-14T23:09:21.289Z,66.82
2017-11-14T23:11:49.052Z,65.32
2017-11-14T23:14:16.562Z,65.12
2017-11-14T23:16:44.079Z,65.91
2017-11-14T23:19:11.654Z,65.25
2017-11-14T23:21:39.172Z,64.53
2017-11-14T23:24:06.745Z,65.50
2017-11-14T23:26:34.518Z,66.31
2017-11-14T23:29:02.171Z,66.71
2017-11-14T23:31:29.693Z,67.56
2017-11-14T23:33:57.599Z,67.93
2017-11-14T23:36:25.226Z,68.08
2017-11-14T23:38:52.737Z,67.89
2017-11-14T23:41:20.580Z,66.81
2017-11-14T23:43:48.095Z,67.12
2017-11-14T23:46:15.611Z,67.46
2017-11-14T23:48:43.176Z,66.71
2017-11-14T23:51:10.718Z,68.34
2017-11-14T23:53:38.276Z,69.83
2017-11-14T23:56:05.832Z,69.45
2017-11-14T23:58:33.394Z,67.97
